UNTT/TOF METAR and TAF weather

Enter ICAO airport designator
Station Type Date Time Source
UNTT METAR 2020/08/10 23:30 UTC NOAA

UNTT 102330Z 07002MPS CAVOK 14/12 Q1001 R21/090060 NOSIG RMK QFE736


Station Type Date Time Source
UNTT Decoded METAR 2020/08/10 23:30 UTC NOAA

Station name not available
Aug 10, 2020 - 07:30 PM EDT / 2020.08.10 2330 UTC
Wind: from the ENE (070 degrees) at 4 MPH (4 KT):0
Visibility: greater than 7 mile(s):0
Temperature: 57 F (14 C)
Dew Point: 53 F (12 C)
Relative Humidity: 87%
Pressure (altimeter): 29.56 in. Hg (1001 hPa)
ob: UNTT 102330Z 07002MPS CAVOK 14/12 Q1001 R21/090060 NOSIG RMK QFE736
cycle: 23

Station Type Date Time Source
UNTT TAF UTC NOAA

Error!

Example: see airport list